sensor_id;sensor_type;location;lat;lon;timestamp;P1;durP1;ratioP1;P2;durP2;ratioP2
14080;SDS011;7116;52.152;5.392;2024-01-25T00:01:44;22.77;;;4.87;;
14080;SDS011;7116;52.152;5.392;2024-01-25T00:04:10;27.23;;;5.75;;
14080;SDS011;7116;52.152;5.392;2024-01-25T00:06:35;19.13;;;5.63;;
14080;SDS011;7116;52.152;5.392;2024-01-25T00:09:00;24.67;;;5.83;;
14080;SDS011;7116;52.152;5.392;2024-01-25T00:11:31;19.77;;;4.40;;
14080;SDS011;7116;52.152;5.392;2024-01-25T00:13:59;26.58;;;6.10;;
14080;SDS011;7116;52.152;5.392;2024-01-25T00:16:24;22.30;;;4.67;;
14080;SDS011;7116;52.152;5.392;2024-01-25T00:18:50;21.97;;;5.67;;
14080;SDS011;7116;52.152;5.392;2024-01-25T00:21:17;24.52;;;4.68;;
14080;SDS011;7116;52.152;5.392;2024-01-25T00:23:42;23.17;;;6.73;;
14080;SDS011;7116;52.152;5.392;2024-01-25T00:26:08;25.00;;;4.63;;
14080;SDS011;7116;52.152;5.392;2024-01-25T00:28:33;20.57;;;4.67;;
14080;SDS011;7116;52.152;5.392;2024-01-25T00:30:58;29.13;;;5.28;;
14080;SDS011;7116;52.152;5.392;2024-01-25T00:33:23;34.15;;;5.43;;
14080;SDS011;7116;52.152;5.392;2024-01-25T00:35:49;22.00;;;5.20;;
14080;SDS011;7116;52.152;5.392;2024-01-25T00:38:14;18.70;;;4.88;;
14080;SDS011;7116;52.152;5.392;2024-01-25T00:40:39;23.33;;;6.13;;
14080;SDS011;7116;52.152;5.392;2024-01-25T00:43:05;33.70;;;5.60;;
14080;SDS011;7116;52.152;5.392;2024-01-25T00:45:30;24.10;;;4.93;;
14080;SDS011;7116;52.152;5.392;2024-01-25T00:48:13;29.48;;;5.45;;
14080;SDS011;7116;52.152;5.392;2024-01-25T00:50:41;22.13;;;4.60;;
14080;SDS011;7116;52.152;5.392;2024-01-25T00:53:06;22.45;;;5.00;;
14080;SDS011;7116;52.152;5.392;2024-01-25T00:55:32;23.88;;;5.15;;
14080;SDS011;7116;52.152;5.392;2024-01-25T00:58:06;25.60;;;5.72;;
14080;SDS011;7116;52.152;5.392;2024-01-25T01:00:34;27.50;;;5.32;;
14080;SDS011;7116;52.152;5.392;2024-01-25T01:02:59;20.27;;;5.00;;
14080;SDS011;7116;52.152;5.392;2024-01-25T01:05:29;28.50;;;5.20;;
14080;SDS011;7116;52.152;5.392;2024-01-25T01:07:54;17.97;;;4.20;;
14080;SDS011;7116;52.152;5.392;2024-01-25T01:10:24;25.88;;;4.50;;
14080;SDS011;7116;52.152;5.392;2024-01-25T01:12:49;20.35;;;5.32;;
14080;SDS011;7116;52.152;5.392;2024-01-25T01:15:21;30.45;;;5.38;;
14080;SDS011;7116;52.152;5.392;2024-01-25T01:18:07;19.52;;;4.60;;
14080;SDS011;7116;52.152;5.392;2024-01-25T01:20:54;24.50;;;5.03;;
14080;SDS011;7116;52.152;5.392;2024-01-25T01:23:40;30.52;;;5.82;;
14080;SDS011;7116;52.152;5.392;2024-01-25T01:26:05;27.53;;;4.97;;
14080;SDS011;7116;52.152;5.392;2024-01-25T01:28:33;31.63;;;5.57;;
14080;SDS011;7116;52.152;5.392;2024-01-25T01:30:58;29.17;;;5.97;;
14080;SDS011;7116;52.152;5.392;2024-01-25T01:33:26;23.33;;;5.03;;
14080;SDS011;7116;52.152;5.392;2024-01-25T01:35:51;20.65;;;4.50;;
14080;SDS011;7116;52.152;5.392;2024-01-25T01:38:16;22.37;;;5.57;;
14080;SDS011;7116;52.152;5.392;2024-01-25T01:40:41;25.50;;;5.37;;
14080;SDS011;7116;52.152;5.392;2024-01-25T01:43:06;33.87;;;6.10;;
14080;SDS011;7116;52.152;5.392;2024-01-25T01:45:34;24.47;;;4.83;;
14080;SDS011;7116;52.152;5.392;2024-01-25T01:47:59;32.35;;;5.93;;
14080;SDS011;7116;52.152;5.392;2024-01-25T01:50:24;28.63;;;5.57;;
14080;SDS011;7116;52.152;5.392;2024-01-25T01:52:50;21.37;;;4.60;;
14080;SDS011;7116;52.152;5.392;2024-01-25T01:55:16;31.97;;;6.00;;
14080;SDS011;7116;52.152;5.392;2024-01-25T01:57:41;18.77;;;4.25;;
14080;SDS011;7116;52.152;5.392;2024-01-25T02:00:07;23.30;;;5.00;;
14080;SDS011;7116;52.152;5.392;2024-01-25T02:02:51;29.55;;;5.38;;
14080;SDS011;7116;52.152;5.392;2024-01-25T02:05:16;25.47;;;5.00;;
14080;SDS011;7116;52.152;5.392;2024-01-25T02:07:41;24.77;;;5.80;;
14080;SDS011;7116;52.152;5.392;2024-01-25T02:10:07;28.38;;;5.47;;
14080;SDS011;7116;52.152;5.392;2024-01-25T02:12:32;25.65;;;5.72;;
14080;SDS011;7116;52.152;5.392;2024-01-25T02:14:58;30.53;;;5.30;;
14080;SDS011;7116;52.152;5.392;2024-01-25T02:17:23;27.83;;;5.97;;
14080;SDS011;7116;52.152;5.392;2024-01-25T02:19:48;26.93;;;5.43;;
14080;SDS011;7116;52.152;5.392;2024-01-25T02:22:17;25.70;;;4.83;;
14080;SDS011;7116;52.152;5.392;2024-01-25T02:24:42;32.63;;;6.40;;
14080;SDS011;7116;52.152;5.392;2024-01-25T02:27:07;24.63;;;4.70;;
14080;SDS011;7116;52.152;5.392;2024-01-25T02:29:33;19.03;;;4.90;;
14080;SDS011;7116;52.152;5.392;2024-01-25T02:32:01;25.23;;;5.43;;
14080;SDS011;7116;52.152;5.392;2024-01-25T02:34:28;27.33;;;4.93;;
14080;SDS011;7116;52.152;5.392;2024-01-25T02:36:56;17.15;;;4.97;;
14080;SDS011;7116;52.152;5.392;2024-01-25T02:39:21;23.53;;;6.13;;
14080;SDS011;7116;52.152;5.392;2024-01-25T02:41:46;27.27;;;5.77;;
14080;SDS011;7116;52.152;5.392;2024-01-25T02:44:11;24.80;;;4.83;;
14080;SDS011;7116;52.152;5.392;2024-01-25T02:46:37;23.97;;;5.53;;
14080;SDS011;7116;52.152;5.392;2024-01-25T02:49:03;31.98;;;7.10;;
14080;SDS011;7116;52.152;5.392;2024-01-25T02:51:28;26.33;;;5.40;;
14080;SDS011;7116;52.152;5.392;2024-01-25T02:53:53;25.53;;;5.67;;
14080;SDS011;7116;52.152;5.392;2024-01-25T02:56:18;24.27;;;5.77;;
14080;SDS011;7116;52.152;5.392;2024-01-25T02:58:48;19.10;;;5.20;;
14080;SDS011;7116;52.152;5.392;2024-01-25T03:01:16;22.48;;;5.30;;
14080;SDS011;7116;52.152;5.392;2024-01-25T03:03:49;25.00;;;5.55;;
14080;SDS011;7116;52.152;5.392;2024-01-25T03:15:07;21.48;;;4.75;;
14080;SDS011;7116;52.152;5.392;2024-01-25T03:17:32;21.92;;;4.90;;
14080;SDS011;7116;52.152;5.392;2024-01-25T03:19:58;27.20;;;6.00;;
14080;SDS011;7116;52.152;5.392;2024-01-25T03:22:23;23.03;;;4.40;;
14080;SDS011;7116;52.152;5.392;2024-01-25T03:25:06;27.60;;;5.40;;
14080;SDS011;7116;52.152;5.392;2024-01-25T03:27:31;27.58;;;5.60;;
14080;SDS011;7116;52.152;5.392;2024-01-25T03:29:56;32.10;;;5.73;;
14080;SDS011;7116;52.152;5.392;2024-01-25T03:32:24;32.40;;;5.05;;
14080;SDS011;7116;52.152;5.392;2024-01-25T03:35:08;23.30;;;5.53;;
14080;SDS011;7116;52.152;5.392;2024-01-25T03:37:33;31.42;;;5.20;;
14080;SDS011;7116;52.152;5.392;2024-01-25T03:39:58;32.67;;;5.53;;
14080;SDS011;7116;52.152;5.392;2024-01-25T03:42:23;25.10;;;4.73;;
14080;SDS011;7116;52.152;5.392;2024-01-25T03:44:49;24.17;;;6.07;;
14080;SDS011;7116;52.152;5.392;2024-01-25T03:47:14;20.57;;;5.30;;
14080;SDS011;7116;52.152;5.392;2024-01-25T03:49:39;21.80;;;5.17;;
14080;SDS011;7116;52.152;5.392;2024-01-25T03:52:04;30.40;;;5.47;;
14080;SDS011;7116;52.152;5.392;2024-01-25T03:54:30;26.40;;;6.00;;
14080;SDS011;7116;52.152;5.392;2024-01-25T03:56:55;29.70;;;5.60;;
14080;SDS011;7116;52.152;5.392;2024-01-25T03:59:20;37.50;;;6.10;;
14080;SDS011;7116;52.152;5.392;2024-01-25T04:01:45;24.53;;;5.97;;
14080;SDS011;7116;52.152;5.392;2024-01-25T04:04:12;30.40;;;6.07;;
14080;SDS011;7116;52.152;5.392;2024-01-25T04:06:40;31.73;;;5.50;;
14080;SDS011;7116;52.152;5.392;2024-01-25T04:09:05;25.65;;;5.45;;
14080;SDS011;7116;52.152;5.392;2024-01-25T04:11:31;25.53;;;5.50;;
14080;SDS011;7116;52.152;5.392;2024-01-25T04:13:56;28.97;;;6.13;;
14080;SDS011;7116;52.152;5.392;2024-01-25T04:16:21;31.37;;;5.20;;
14080;SDS011;7116;52.152;5.392;2024-01-25T04:18:46;36.53;;;7.10;;
14080;SDS011;7116;52.152;5.392;2024-01-25T04:21:11;33.20;;;6.53;;
14080;SDS011;7116;52.152;5.392;2024-01-25T04:23:37;25.90;;;6.27;;
14080;SDS011;7116;52.152;5.392;2024-01-25T04:26:02;26.23;;;5.87;;
14080;SDS011;7116;52.152;5.392;2024-01-25T04:28:27;24.83;;;5.57;;
14080;SDS011;7116;52.152;5.392;2024-01-25T04:30:52;21.93;;;5.20;;
14080;SDS011;7116;52.152;5.392;2024-01-25T04:33:17;22.83;;;4.80;;
14080;SDS011;7116;52.152;5.392;2024-01-25T04:35:43;25.63;;;6.20;;
14080;SDS011;7116;52.152;5.392;2024-01-25T04:38:08;25.90;;;5.80;;
14080;SDS011;7116;52.152;5.392;2024-01-25T04:40:36;23.40;;;5.43;;
14080;SDS011;7116;52.152;5.392;2024-01-25T04:43:01;18.25;;;5.05;;
14080;SDS011;7116;52.152;5.392;2024-01-25T04:45:34;31.95;;;5.35;;
14080;SDS011;7116;52.152;5.392;2024-01-25T04:47:59;27.27;;;5.30;;
14080;SDS011;7116;52.152;5.392;2024-01-25T04:50:25;27.42;;;5.13;;
14080;SDS011;7116;52.152;5.392;2024-01-25T04:52:50;27.07;;;4.83;;
14080;SDS011;7116;52.152;5.392;2024-01-25T04:55:15;21.67;;;5.47;;
14080;SDS011;7116;52.152;5.392;2024-01-25T04:57:40;31.83;;;5.57;;
14080;SDS011;7116;52.152;5.392;2024-01-25T05:00:06;22.27;;;4.63;;
14080;SDS011;7116;52.152;5.392;2024-01-25T05:02:31;20.37;;;4.67;;
14080;SDS011;7116;52.152;5.392;2024-01-25T05:04:56;29.07;;;5.90;;
14080;SDS011;7116;52.152;5.392;2024-01-25T05:07:22;31.80;;;6.23;;
14080;SDS011;7116;52.152;5.392;2024-01-25T05:09:47;25.30;;;5.53;;
14080;SDS011;7116;52.152;5.392;2024-01-25T05:12:12;25.37;;;5.43;;
14080;SDS011;7116;52.152;5.392;2024-01-25T05:14:40;29.38;;;5.88;;
14080;SDS011;7116;52.152;5.392;2024-01-25T05:17:12;30.13;;;7.03;;
14080;SDS011;7116;52.152;5.392;2024-01-25T05:19:38;23.27;;;4.72;;
14080;SDS011;7116;52.152;5.392;2024-01-25T05:25:08;24.33;;;6.07;;
14080;SDS011;7116;52.152;5.392;2024-01-25T05:27:37;23.48;;;5.18;;
14080;SDS011;7116;52.152;5.392;2024-01-25T05:30:02;21.55;;;5.32;;
14080;SDS011;7116;52.152;5.392;2024-01-25T05:32:28;23.97;;;4.83;;
14080;SDS011;7116;52.152;5.392;2024-01-25T05:34:55;25.73;;;5.57;;
14080;SDS011;7116;52.152;5.392;2024-01-25T05:37:20;32.83;;;6.30;;
14080;SDS011;7116;52.152;5.392;2024-01-25T05:39:45;32.30;;;5.73;;
14080;SDS011;7116;52.152;5.392;2024-01-25T05:42:11;21.97;;;5.03;;
14080;SDS011;7116;52.152;5.392;2024-01-25T05:44:36;23.80;;;5.00;;
14080;SDS011;7116;52.152;5.392;2024-01-25T05:47:01;22.03;;;5.53;;
14080;SDS011;7116;52.152;5.392;2024-01-25T05:49:29;28.00;;;5.47;;
14080;SDS011;7116;52.152;5.392;2024-01-25T05:52:07;27.10;;;5.55;;
14080;SDS011;7116;52.152;5.392;2024-01-25T05:54:35;23.27;;;5.25;;
14080;SDS011;7116;52.152;5.392;2024-01-25T05:57:00;22.87;;;5.17;;
14080;SDS011;7116;52.152;5.392;2024-01-25T05:59:25;14.60;;;4.97;;
14080;SDS011;7116;52.152;5.392;2024-01-25T06:01:51;27.13;;;4.70;;
14080;SDS011;7116;52.152;5.392;2024-01-25T06:04:16;24.17;;;6.70;;
14080;SDS011;7116;52.152;5.392;2024-01-25T06:06:41;26.97;;;5.70;;
14080;SDS011;7116;52.152;5.392;2024-01-25T06:09:07;32.70;;;6.17;;
14080;SDS011;7116;52.152;5.392;2024-01-25T06:11:32;22.50;;;5.45;;
14080;SDS011;7116;52.152;5.392;2024-01-25T06:14:00;37.22;;;5.95;;
14080;SDS011;7116;52.152;5.392;2024-01-25T06:16:25;21.20;;;5.33;;
14080;SDS011;7116;52.152;5.392;2024-01-25T06:18:50;26.17;;;6.03;;
14080;SDS011;7116;52.152;5.392;2024-01-25T06:21:15;23.70;;;4.97;;
14080;SDS011;7116;52.152;5.392;2024-01-25T06:23:40;29.33;;;5.60;;
14080;SDS011;7116;52.152;5.392;2024-01-25T06:26:06;27.87;;;6.10;;
14080;SDS011;7116;52.152;5.392;2024-01-25T06:28:31;27.58;;;5.78;;
14080;SDS011;7116;52.152;5.392;2024-01-25T06:31:00;21.90;;;5.13;;
14080;SDS011;7116;52.152;5.392;2024-01-25T06:33:26;17.15;;;4.80;;
14080;SDS011;7116;52.152;5.392;2024-01-25T06:35:53;20.50;;;4.83;;
14080;SDS011;7116;52.152;5.392;2024-01-25T06:38:21;22.55;;;5.40;;
14080;SDS011;7116;52.152;5.392;2024-01-25T06:40:46;32.17;;;5.93;;
14080;SDS011;7116;52.152;5.392;2024-01-25T06:43:11;23.83;;;5.67;;
14080;SDS011;7116;52.152;5.392;2024-01-25T06:45:37;23.07;;;5.33;;
14080;SDS011;7116;52.152;5.392;2024-01-25T06:48:04;24.77;;;5.95;;
14080;SDS011;7116;52.152;5.392;2024-01-25T06:50:30;23.83;;;4.83;;
14080;SDS011;7116;52.152;5.392;2024-01-25T06:52:55;19.83;;;5.17;;
14080;SDS011;7116;52.152;5.392;2024-01-25T06:55:23;24.15;;;5.90;;
14080;SDS011;7116;52.152;5.392;2024-01-25T06:57:55;26.65;;;5.43;;
14080;SDS011;7116;52.152;5.392;2024-01-25T07:00:22;30.40;;;5.43;;
14080;SDS011;7116;52.152;5.392;2024-01-25T07:02:47;28.33;;;6.30;;
14080;SDS011;7116;52.152;5.392;2024-01-25T07:05:13;31.33;;;5.67;;
14080;SDS011;7116;52.152;5.392;2024-01-25T07:07:38;17.93;;;5.90;;
14080;SDS011;7116;52.152;5.392;2024-01-25T07:10:06;28.58;;;6.13;;
14080;SDS011;7116;52.152;5.392;2024-01-25T07:12:31;26.85;;;6.03;;
14080;SDS011;7116;52.152;5.392;2024-01-25T07:14:56;23.17;;;5.83;;
14080;SDS011;7116;52.152;5.392;2024-01-25T07:17:24;18.23;;;5.80;;
14080;SDS011;7116;52.152;5.392;2024-01-25T07:19:49;31.17;;;6.65;;
14080;SDS011;7116;52.152;5.392;2024-01-25T07:22:14;23.80;;;5.90;;
14080;SDS011;7116;52.152;5.392;2024-01-25T07:24:42;26.80;;;6.63;;
14080;SDS011;7116;52.152;5.392;2024-01-25T07:27:07;22.20;;;5.47;;
14080;SDS011;7116;52.152;5.392;2024-01-25T07:29:35;30.92;;;6.65;;
14080;SDS011;7116;52.152;5.392;2024-01-25T07:32:01;22.95;;;6.43;;
14080;SDS011;7116;52.152;5.392;2024-01-25T07:34:26;31.90;;;7.00;;
14080;SDS011;7116;52.152;5.392;2024-01-25T07:36:51;25.00;;;6.33;;
14080;SDS011;7116;52.152;5.392;2024-01-25T07:39:17;19.77;;;6.80;;
14080;SDS011;7116;52.152;5.392;2024-01-25T07:41:50;23.08;;;6.85;;
14080;SDS011;7116;52.152;5.392;2024-01-25T07:44:15;23.10;;;7.77;;
14080;SDS011;7116;52.152;5.392;2024-01-25T07:46:43;22.27;;;6.20;;
14080;SDS011;7116;52.152;5.392;2024-01-25T07:49:10;32.90;;;7.82;;
14080;SDS011;7116;52.152;5.392;2024-01-25T07:51:35;30.50;;;7.80;;
14080;SDS011;7116;52.152;5.392;2024-01-25T07:54:10;21.45;;;7.07;;
14080;SDS011;7116;52.152;5.392;2024-01-25T07:59:41;25.45;;;7.13;;
14080;SDS011;7116;52.152;5.392;2024-01-25T08:02:07;29.87;;;12.00;;
14080;SDS011;7116;52.152;5.392;2024-01-25T08:04:32;27.60;;;8.50;;
14080;SDS011;7116;52.152;5.392;2024-01-25T08:06:57;30.40;;;6.70;;
14080;SDS011;7116;52.152;5.392;2024-01-25T08:09:23;23.43;;;7.67;;
14080;SDS011;7116;52.152;5.392;2024-01-25T08:11:50;23.47;;;6.77;;
14080;SDS011;7116;52.152;5.392;2024-01-25T08:14:36;25.65;;;6.53;;
14080;SDS011;7116;52.152;5.392;2024-01-25T08:17:01;22.97;;;5.93;;
14080;SDS011;7116;52.152;5.392;2024-01-25T08:19:26;25.57;;;7.73;;
14080;SDS011;7116;52.152;5.392;2024-01-25T08:21:51;26.63;;;7.20;;
14080;SDS011;7116;52.152;5.392;2024-01-25T08:24:19;26.17;;;8.05;;
14080;SDS011;7116;52.152;5.392;2024-01-25T08:26:44;37.63;;;8.40;;
14080;SDS011;7116;52.152;5.392;2024-01-25T08:29:10;32.90;;;8.83;;
14080;SDS011;7116;52.152;5.392;2024-01-25T08:31:35;28.27;;;8.60;;
14080;SDS011;7116;52.152;5.392;2024-01-25T08:34:02;33.60;;;10.53;;
14080;SDS011;7116;52.152;5.392;2024-01-25T08:36:44;26.57;;;9.20;;
14080;SDS011;7116;52.152;5.392;2024-01-25T08:39:12;26.92;;;11.13;;
14080;SDS011;7116;52.152;5.392;2024-01-25T08:41:37;35.33;;;10.73;;
14080;SDS011;7116;52.152;5.392;2024-01-25T08:44:07;32.78;;;12.30;;
14080;SDS011;7116;52.152;5.392;2024-01-25T08:46:32;30.83;;;10.47;;
14080;SDS011;7116;52.152;5.392;2024-01-25T08:48:57;25.00;;;10.70;;
14080;SDS011;7116;52.152;5.392;2024-01-25T08:51:22;27.10;;;8.53;;
14080;SDS011;7116;52.152;5.392;2024-01-25T08:53:48;24.73;;;8.80;;
14080;SDS011;7116;52.152;5.392;2024-01-25T08:56:16;22.65;;;8.00;;
14080;SDS011;7116;52.152;5.392;2024-01-25T08:58:46;34.13;;;9.68;;
14080;SDS011;7116;52.152;5.392;2024-01-25T09:01:12;20.92;;;7.10;;
14080;SDS011;7116;52.152;5.392;2024-01-25T09:03:48;23.83;;;8.27;;
14080;SDS011;7116;52.152;5.392;2024-01-25T09:09:27;28.92;;;7.95;;
14080;SDS011;7116;52.152;5.392;2024-01-25T09:11:55;24.10;;;7.77;;
14080;SDS011;7116;52.152;5.392;2024-01-25T09:14:23;29.17;;;8.48;;
14080;SDS011;7116;52.152;5.392;2024-01-25T09:19:47;29.20;;;6.32;;
14080;SDS011;7116;52.152;5.392;2024-01-25T09:28:24;23.13;;;6.63;;
14080;SDS011;7116;52.152;5.392;2024-01-25T09:34:03;32.53;;;7.38;;
14080;SDS011;7116;52.152;5.392;2024-01-25T09:36:29;24.17;;;6.70;;
14080;SDS011;7116;52.152;5.392;2024-01-25T09:38:54;25.93;;;7.17;;
14080;SDS011;7116;52.152;5.392;2024-01-25T09:41:19;22.33;;;6.20;;
14080;SDS011;7116;52.152;5.392;2024-01-25T09:43:45;27.83;;;7.47;;
14080;SDS011;7116;52.152;5.392;2024-01-25T09:46:13;23.17;;;6.22;;
14080;SDS011;7116;52.152;5.392;2024-01-25T09:48:39;31.10;;;7.55;;
14080;SDS011;7116;52.152;5.392;2024-01-25T09:51:05;32.70;;;6.80;;
14080;SDS011;7116;52.152;5.392;2024-01-25T09:53:48;27.13;;;7.05;;
14080;SDS011;7116;52.152;5.392;2024-01-25T09:56:14;28.80;;;6.20;;
14080;SDS011;7116;52.152;5.392;2024-01-25T09:58:46;16.13;;;5.73;;
14080;SDS011;7116;52.152;5.392;2024-01-25T10:01:15;23.77;;;5.68;;
14080;SDS011;7116;52.152;5.392;2024-01-25T10:03:46;27.05;;;6.75;;
14080;SDS011;7116;52.152;5.392;2024-01-25T10:06:12;28.95;;;7.30;;
14080;SDS011;7116;52.152;5.392;2024-01-25T10:08:37;20.30;;;5.70;;
14080;SDS011;7116;52.152;5.392;2024-01-25T10:11:03;31.13;;;5.80;;
14080;SDS011;7116;52.152;5.392;2024-01-25T10:13:28;25.70;;;6.07;;
14080;SDS011;7116;52.152;5.392;2024-01-25T10:15:54;26.07;;;6.67;;
14080;SDS011;7116;52.152;5.392;2024-01-25T10:18:19;32.37;;;7.17;;
14080;SDS011;7116;52.152;5.392;2024-01-25T10:20:45;26.93;;;6.60;;
14080;SDS011;7116;52.152;5.392;2024-01-25T10:23:10;23.77;;;5.63;;
14080;SDS011;7116;52.152;5.392;2024-01-25T10:25:35;24.27;;;5.53;;
14080;SDS011;7116;52.152;5.392;2024-01-25T10:28:02;20.20;;;5.70;;
14080;SDS011;7116;52.152;5.392;2024-01-25T10:30:28;28.63;;;6.28;;
14080;SDS011;7116;52.152;5.392;2024-01-25T10:32:56;22.10;;;6.28;;
14080;SDS011;7116;52.152;5.392;2024-01-25T10:35:22;30.05;;;6.10;;
14080;SDS011;7116;52.152;5.392;2024-01-25T10:37:48;22.40;;;5.10;;
14080;SDS011;7116;52.152;5.392;2024-01-25T10:40:13;20.38;;;5.72;;
14080;SDS011;7116;52.152;5.392;2024-01-25T10:42:40;24.40;;;5.53;;
14080;SDS011;7116;52.152;5.392;2024-01-25T10:45:07;32.85;;;6.50;;
14080;SDS011;7116;52.152;5.392;2024-01-25T10:47:33;28.17;;;5.87;;
14080;SDS011;7116;52.152;5.392;2024-01-25T10:50:00;24.30;;;5.72;;
14080;SDS011;7116;52.152;5.392;2024-01-25T10:52:26;23.65;;;5.70;;
14080;SDS011;7116;52.152;5.392;2024-01-25T10:54:51;26.00;;;5.85;;
14080;SDS011;7116;52.152;5.392;2024-01-25T10:57:17;26.27;;;5.70;;
14080;SDS011;7116;52.152;5.392;2024-01-25T10:59:42;27.50;;;5.97;;
14080;SDS011;7116;52.152;5.392;2024-01-25T11:02:07;24.40;;;6.37;;
14080;SDS011;7116;52.152;5.392;2024-01-25T11:04:34;33.22;;;6.22;;
14080;SDS011;7116;52.152;5.392;2024-01-25T11:07:06;26.70;;;5.97;;
14080;SDS011;7116;52.152;5.392;2024-01-25T11:09:31;28.60;;;6.35;;
14080;SDS011;7116;52.152;5.392;2024-01-25T11:11:58;26.17;;;5.83;;
14080;SDS011;7116;52.152;5.392;2024-01-25T11:14:24;37.22;;;7.47;;
14080;SDS011;7116;52.152;5.392;2024-01-25T11:16:50;37.25;;;5.95;;
14080;SDS011;7116;52.152;5.392;2024-01-25T11:19:16;25.17;;;7.10;;
14080;SDS011;7116;52.152;5.392;2024-01-25T11:21:42;33.92;;;7.57;;
14080;SDS011;7116;52.152;5.392;2024-01-25T11:24:19;30.40;;;7.07;;
14080;SDS011;7116;52.152;5.392;2024-01-25T11:26:45;25.98;;;6.82;;
14080;SDS011;7116;52.152;5.392;2024-01-25T11:29:12;26.85;;;6.75;;
14080;SDS011;7116;52.152;5.392;2024-01-25T11:31:41;33.40;;;6.63;;
14080;SDS011;7116;52.152;5.392;2024-01-25T11:34:09;31.20;;;6.90;;
14080;SDS011;7116;52.152;5.392;2024-01-25T11:36:35;29.77;;;7.78;;
14080;SDS011;7116;52.152;5.392;2024-01-25T11:39:00;24.40;;;6.60;;
14080;SDS011;7116;52.152;5.392;2024-01-25T11:41:26;31.87;;;7.47;;
14080;SDS011;7116;52.152;5.392;2024-01-25T11:43:52;26.03;;;8.17;;
14080;SDS011;7116;52.152;5.392;2024-01-25T11:46:20;33.80;;;8.43;;
14080;SDS011;7116;52.152;5.392;2024-01-25T11:48:45;29.80;;;9.70;;
14080;SDS011;7116;52.152;5.392;2024-01-25T11:51:11;29.35;;;7.90;;
14080;SDS011;7116;52.152;5.392;2024-01-25T11:53:36;22.97;;;7.07;;
14080;SDS011;7116;52.152;5.392;2024-01-25T11:56:02;29.20;;;7.63;;
14080;SDS011;7116;52.152;5.392;2024-01-25T11:58:27;29.25;;;6.22;;
14080;SDS011;7116;52.152;5.392;2024-01-25T12:00:53;29.67;;;7.70;;
14080;SDS011;7116;52.152;5.392;2024-01-25T12:03:18;29.25;;;6.90;;
14080;SDS011;7116;52.152;5.392;2024-01-25T12:05:44;25.97;;;6.40;;
14080;SDS011;7116;52.152;5.392;2024-01-25T12:08:09;25.27;;;6.03;;
14080;SDS011;7116;52.152;5.392;2024-01-25T12:10:37;27.00;;;7.40;;
14080;SDS011;7116;52.152;5.392;2024-01-25T12:13:02;28.57;;;5.97;;
14080;SDS011;7116;52.152;5.392;2024-01-25T12:15:31;24.33;;;5.80;;
14080;SDS011;7116;52.152;5.392;2024-01-25T12:17:57;26.85;;;6.53;;
14080;SDS011;7116;52.152;5.392;2024-01-25T12:20:23;30.48;;;7.70;;
14080;SDS011;7116;52.152;5.392;2024-01-25T12:22:48;23.38;;;7.13;;
14080;SDS011;7116;52.152;5.392;2024-01-25T12:25:14;24.70;;;6.63;;
14080;SDS011;7116;52.152;5.392;2024-01-25T12:27:39;31.10;;;7.63;;
14080;SDS011;7116;52.152;5.392;2024-01-25T12:30:06;33.78;;;7.53;;
14080;SDS011;7116;52.152;5.392;2024-01-25T12:32:31;34.43;;;7.40;;
14080;SDS011;7116;52.152;5.392;2024-01-25T12:34:57;27.50;;;7.03;;
14080;SDS011;7116;52.152;5.392;2024-01-25T12:37:22;23.67;;;6.95;;
14080;SDS011;7116;52.152;5.392;2024-01-25T12:39:48;23.13;;;6.30;;
14080;SDS011;7116;52.152;5.392;2024-01-25T12:42:13;24.70;;;6.67;;
14080;SDS011;7116;52.152;5.392;2024-01-25T12:44:39;27.80;;;6.60;;
14080;SDS011;7116;52.152;5.392;2024-01-25T12:47:04;33.85;;;6.65;;
14080;SDS011;7116;52.152;5.392;2024-01-25T12:49:31;25.70;;;6.03;;
14080;SDS011;7116;52.152;5.392;2024-01-25T12:51:56;23.40;;;6.53;;
14080;SDS011;7116;52.152;5.392;2024-01-25T12:54:22;34.43;;;7.30;;
14080;SDS011;7116;52.152;5.392;2024-01-25T12:56:47;25.95;;;7.25;;
14080;SDS011;7116;52.152;5.392;2024-01-25T12:59:12;28.63;;;8.27;;
14080;SDS011;7116;52.152;5.392;2024-01-25T13:01:37;31.30;;;7.30;;
14080;SDS011;7116;52.152;5.392;2024-01-25T13:04:03;33.58;;;8.82;;
14080;SDS011;7116;52.152;5.392;2024-01-25T13:06:28;27.48;;;7.40;;
14080;SDS011;7116;52.152;5.392;2024-01-25T13:08:54;35.17;;;7.90;;
14080;SDS011;7116;52.152;5.392;2024-01-25T13:11:19;22.77;;;6.87;;
14080;SDS011;7116;52.152;5.392;2024-01-25T13:13:44;22.97;;;6.93;;
14080;SDS011;7116;52.152;5.392;2024-01-25T13:16:10;31.15;;;7.07;;
14080;SDS011;7116;52.152;5.392;2024-01-25T13:18:35;26.87;;;6.93;;
14080;SDS011;7116;52.152;5.392;2024-01-25T13:21:01;31.40;;;6.53;;
14080;SDS011;7116;52.152;5.392;2024-01-25T13:23:26;35.50;;;7.28;;
14080;SDS011;7116;52.152;5.392;2024-01-25T13:25:51;34.43;;;8.03;;
14080;SDS011;7116;52.152;5.392;2024-01-25T13:28:16;33.30;;;7.53;;
14080;SDS011;7116;52.152;5.392;2024-01-25T13:30:42;29.83;;;7.40;;
14080;SDS011;7116;52.152;5.392;2024-01-25T13:33:07;23.23;;;6.70;;
14080;SDS011;7116;52.152;5.392;2024-01-25T13:35:32;29.70;;;7.17;;
14080;SDS011;7116;52.152;5.392;2024-01-25T13:37:57;25.50;;;6.60;;
14080;SDS011;7116;52.152;5.392;2024-01-25T13:40:26;35.85;;;8.35;;
14080;SDS011;7116;52.152;5.392;2024-01-25T13:42:51;27.33;;;7.70;;
14080;SDS011;7116;52.152;5.392;2024-01-25T13:45:16;34.80;;;8.80;;
14080;SDS011;7116;52.152;5.392;2024-01-25T13:47:41;27.77;;;7.88;;
14080;SDS011;7116;52.152;5.392;2024-01-25T13:50:27;28.85;;;8.38;;
14080;SDS011;7116;52.152;5.392;2024-01-25T13:52:52;27.87;;;8.83;;
14080;SDS011;7116;52.152;5.392;2024-01-25T13:55:20;32.45;;;9.10;;
14080;SDS011;7116;52.152;5.392;2024-01-25T13:57:45;32.35;;;8.73;;
14080;SDS011;7116;52.152;5.392;2024-01-25T14:00:11;37.07;;;20.33;;
14080;SDS011;7116;52.152;5.392;2024-01-25T14:02:36;30.73;;;8.70;;
14080;SDS011;7116;52.152;5.392;2024-01-25T14:05:01;30.40;;;7.77;;
14080;SDS011;7116;52.152;5.392;2024-01-25T14:07:27;31.03;;;8.40;;
14080;SDS011;7116;52.152;5.392;2024-01-25T14:09:52;30.70;;;7.37;;
14080;SDS011;7116;52.152;5.392;2024-01-25T14:12:18;31.63;;;8.60;;
14080;SDS011;7116;52.152;5.392;2024-01-25T14:14:43;33.73;;;9.43;;
14080;SDS011;7116;52.152;5.392;2024-01-25T14:17:08;29.63;;;8.40;;
14080;SDS011;7116;52.152;5.392;2024-01-25T14:19:34;33.80;;;10.10;;
14080;SDS011;7116;52.152;5.392;2024-01-25T14:21:59;31.10;;;9.77;;
14080;SDS011;7116;52.152;5.392;2024-01-25T14:24:24;33.07;;;9.07;;
14080;SDS011;7116;52.152;5.392;2024-01-25T14:26:49;36.03;;;8.93;;
14080;SDS011;7116;52.152;5.392;2024-01-25T14:29:16;29.70;;;10.07;;
14080;SDS011;7116;52.152;5.392;2024-01-25T14:31:41;32.42;;;8.75;;
14080;SDS011;7116;52.152;5.392;2024-01-25T14:34:07;38.10;;;9.83;;
14080;SDS011;7116;52.152;5.392;2024-01-25T14:36:36;29.05;;;8.65;;
14080;SDS011;7116;52.152;5.392;2024-01-25T14:39:04;36.53;;;10.73;;
14080;SDS011;7116;52.152;5.392;2024-01-25T14:41:30;27.13;;;9.00;;
14080;SDS011;7116;52.152;5.392;2024-01-25T14:43:55;33.90;;;9.30;;
14080;SDS011;7116;52.152;5.392;2024-01-25T14:46:21;27.20;;;8.77;;
14080;SDS011;7116;52.152;5.392;2024-01-25T14:48:46;30.23;;;9.30;;
14080;SDS011;7116;52.152;5.392;2024-01-25T14:51:11;32.97;;;9.13;;
14080;SDS011;7116;52.152;5.392;2024-01-25T14:53:36;31.13;;;8.73;;
14080;SDS011;7116;52.152;5.392;2024-01-25T14:56:02;21.70;;;8.53;;
14080;SDS011;7116;52.152;5.392;2024-01-25T14:58:27;27.87;;;8.33;;
14080;SDS011;7116;52.152;5.392;2024-01-25T15:00:56;31.67;;;9.35;;
14080;SDS011;7116;52.152;5.392;2024-01-25T15:03:21;36.55;;;9.18;;
14080;SDS011;7116;52.152;5.392;2024-01-25T15:05:46;32.27;;;9.93;;
14080;SDS011;7116;52.152;5.392;2024-01-25T15:08:11;30.70;;;9.80;;
14080;SDS011;7116;52.152;5.392;2024-01-25T15:10:38;22.77;;;8.70;;
14080;SDS011;7116;52.152;5.392;2024-01-25T15:13:05;36.13;;;11.05;;
14080;SDS011;7116;52.152;5.392;2024-01-25T15:15:33;33.47;;;9.60;;